createdAt,value
2022-10-30T00:27:55.546Z,1021.94
2022-10-30T00:57:01.589Z,1021.93
2022-10-30T01:26:04.346Z,1021.8
2022-10-30T01:55:07.333Z,1021.62
2022-10-30T02:24:11.196Z,1021.41
2022-10-30T02:53:01.996Z,1021.29
2022-10-30T03:21:37.382Z,1021.41
2022-10-30T03:50:36.675Z,1021.53
2022-10-30T04:19:40.634Z,1021.61
2022-10-30T04:48:43.008Z,1021.65
2022-10-30T05:17:44.313Z,1021.53
2022-10-30T05:46:44.447Z,1021.39
2022-10-30T06:15:36.833Z,1021.57
2022-10-30T06:44:41.477Z,1021.59
2022-10-30T07:13:48.189Z,1021.7
2022-10-30T07:42:54.230Z,1021.81
2022-10-30T08:12:14.449Z,1021.74
2022-10-30T08:42:05.155Z,1021.72
2022-10-30T09:11:56.141Z,1021.67
2022-10-30T09:40:31.100Z,1021.77
2022-10-30T10:09:18.904Z,1021.8
2022-10-30T10:38:06.345Z,1021.71
2022-10-30T11:07:06.659Z,1021.72
2022-10-30T11:36:16.505Z,1021.53
2022-10-30T12:04:54.720Z,1021.44
2022-10-30T12:34:01.310Z,1021.14
2022-10-30T13:02:58.069Z,1020.97
2022-10-30T13:31:35.527Z,1020.82
2022-10-30T14:00:41.311Z,1020.7
2022-10-30T14:29:39.105Z,1020.72
2022-10-30T14:58:45.159Z,1020.83
2022-10-30T18:24:56.500Z,1022.14
2022-10-30T18:53:53.794Z,1022.33
2022-10-30T19:22:46.370Z,1022.4
2022-10-30T19:51:53.085Z,1022.41
2022-10-30T20:20:50.245Z,1022.43
2022-10-30T20:49:54.645Z,1022.6
2022-10-30T21:18:58.716Z,1022.93
2022-10-30T21:47:57.500Z,1022.99
2022-10-30T22:17:01.993Z,1023.07
2022-10-30T22:46:06.896Z,1022.93
2022-10-30T23:14:55.135Z,1022.91
2022-10-30T23:43:54.667Z,1022.75
